Monitor — WCX9104 — position and weather

sailwx.info

Track history (hours):
 
Tides and Currents Weather Stations Pressure Air Temp Water Temp Dewpoint Dewpoint Depression Visibility Wind Speed Wind Dir Waves Ship Positions

Monitor

Owner: Crowley Puerto Rico Services, Inc., Jacksonville, FL. More information available from US FCC via Universal Licensing System and Coast Guard Vessel Documentation Center.

Last reported at 2018-Jan-11 09:29 UTC. Time now 2018-Jan-22 12:38 UTC.
Position N 38°53' W 075°05'.
Warning: this ship's position is 11 days out of date.

Length 40 m; draft 5.8 m.

Type: Towing. MMSI: 366766920.

Date/timePositionNaut miles runAvg speedWind from/ knotsBaromVisibWave heightAir tempDewpointWater temp
2018-Jan-11 09:29N 38°53' W 075°05'4 8.7
2018-Jan-11 08:59N 38°58' W 075°07'4 8.2
2018-Jan-11 08:28N 39°01' W 075°09'4 7.9
2018-Jan-11 07:59N 39°05' W 075°11'4 7.7
2018-Jan-11 07:30N 39°08' W 075°14'4 7.6
2018-Jan-11 07:00N 39°11' W 075°16'4 8.5
2018-Jan-11 06:30N 39°15' W 075°19'5 9.1
2018-Jan-11 06:00N 39°18' W 075°23'510.4
2018-Jan-11 05:30N 39°22' W 075°27'510.7
2018-Jan-11 05:00N 39°26' W 075°32'5 9.9
2018-Jan-11 04:31N 39°31' W 075°33'510.3
2018-Jan-11 04:00N 39°36' W 075°34'4 9.0
2018-Jan-11 03:30N 39°40' W 075°32'510.0
2018-Jan-11 03:00N 39°45' W 075°30'5 9.3
2018-Jan-11 02:30N 39°48' W 075°25'5 9.0
2018-Jan-11 02:00N 39°51' W 075°21'4 8.1
2018-Jan-11 01:30N 39°51' W 075°15'4 7.7
2018-Jan-11 01:01N 39°53' W 075°11'3 6.0
2018-Jan-11 00:30N 39°55' W 075°08'3 6.4
2018-Jan-11 00:00N 39°58' W 075°07'1 1.2
2018-Jan-10 23:30N 39°58' W 075°07'0 0.2
2018-Jan-10 22:59N 39°58' W 075°07'0 0.0
2018-Jan-10 22:29N 39°58' W 075°07'0 0.0
2018-Jan-10 21:59N 39°58' W 075°07'0 0.0
2018-Jan-10 21:29N 39°58' W 075°07'0 0.0
2018-Jan-10 20:59N 39°58' W 075°07'0 0.0
2018-Jan-10 20:29N 39°58' W 075°07'0 0.5
2018-Jan-10 20:00N 39°58' W 075°07'1 1.9
2018-Jan-10 19:29N 39°59' W 075°05'0 0.0
2018-Jan-10 18:59N 39°59' W 075°05'0 0.0
2018-Jan-10 18:29N 39°59' W 075°05'0 0.0
2018-Jan-10 17:59N 39°59' W 075°05'0 0.0
2018-Jan-10 17:29N 39°59' W 075°05'0 0.0
2018-Jan-10 16:59N 39°59' W 075°05'0 0.0
2018-Jan-10 16:29N 39°59' W 075°05'0 0.0
2018-Jan-10 15:59N 39°59' W 075°05'0 0.0
2018-Jan-10 15:29N 39°59' W 075°05'0 0.0
2018-Jan-10 14:59N 39°59' W 075°05'0 0.0
2018-Jan-10 14:29N 39°59' W 075°05'0 0.0
2018-Jan-10 13:59N 39°59' W 075°05'0 0.0
2018-Jan-10 13:29N 39°59' W 075°05'0 0.0
2018-Jan-10 12:59N 39°59' W 075°05'0 0.0
2018-Jan-10 12:29N 39°59' W 075°05'0 0.0
2018-Jan-10 11:59N 39°59' W 075°05'0 0.0
2018-Jan-10 11:29N 39°59' W 075°05'0 0.0
2018-Jan-10 10:59N 39°59' W 075°05'0 0.0
2018-Jan-10 10:29N 39°59' W 075°05'0 0.0
2018-Jan-10 09:59N 39°59' W 075°05'0 0.0
2018-Jan-10 09:29N 39°59' W 075°05'0 0.0
2018-Jan-10 08:59N 39°59' W 075°05'0 0.0
2018-Jan-10 08:29N 39°59' W 075°05'0 0.0
2018-Jan-10 07:59N 39°59' W 075°05'0 0.0
2018-Jan-10 07:26N 39°59' W 075°05'0 0.0
2018-Jan-10 06:59N 39°59' W 075°05'0 0.0
2018-Jan-10 06:29N 39°59' W 075°05'0 0.0
2018-Jan-10 05:59N 39°59' W 075°05'0 0.0
2018-Jan-10 05:29N 39°59' W 075°05'0 0.0
2018-Jan-10 04:59N 39°59' W 075°05'0 0.0
2018-Jan-10 04:29N 39°59' W 075°05'0 0.0
2018-Jan-10 03:59N 39°59' W 075°05'0 0.0
2018-Jan-10 03:29N 39°59' W 075°05'0 0.0
2018-Jan-10 02:59N 39°59' W 075°05'0 0.0
2018-Jan-10 02:29N 39°59' W 075°05'0 0.0
2018-Jan-10 01:59N 39°59' W 075°05'0 0.0
2018-Jan-10 01:29N 39°59' W 075°05'0 0.0
2018-Jan-10 00:59N 39°59' W 075°05'0 0.0
2018-Jan-10 00:29N 39°59' W 075°05'0 0.0
2018-Jan-09 23:59N 39°59' W 075°05'0 0.0
2018-Jan-09 23:29N 39°59' W 075°05'0 0.0
2018-Jan-09 22:59N 39°59' W 075°05'0 0.0
2018-Jan-09 22:29N 39°59' W 075°05'0 0.0
2018-Jan-09 21:59N 39°59' W 075°05'0 0.0
2018-Jan-09 21:29N 39°59' W 075°05'0 0.0
2018-Jan-09 20:59N 39°59' W 075°05'0 0.0
2018-Jan-09 20:29N 39°59' W 075°05'0 0.0
2018-Jan-09 19:59N 39°59' W 075°05'0 0.0
2018-Jan-09 19:29N 39°59' W 075°05'0 0.0
2018-Jan-09 18:59N 39°59' W 075°05'0 0.0
2018-Jan-09 18:29N 39°59' W 075°05'0 0.0
2018-Jan-09 17:59N 39°59' W 075°05'0 0.0
2018-Jan-09 17:29N 39°59' W 075°05'0 0.0
2018-Jan-09 16:59N 39°59' W 075°05'0 0.0
2018-Jan-09 16:29N 39°59' W 075°05'0 0.0
2018-Jan-09 15:59N 39°59' W 075°05'0 0.0
2018-Jan-09 15:29N 39°59' W 075°05'0 0.0
2018-Jan-09 14:59N 39°59' W 075°05'0 0.0
2018-Jan-09 14:29N 39°59' W 075°05'0 0.0
2018-Jan-09 13:59N 39°59' W 075°05'0 0.0
2018-Jan-09 13:26N 39°59' W 075°05'0 0.0
2018-Jan-09 12:59N 39°59' W 075°05'0 0.0
2018-Jan-09 12:30N 39°59' W 075°05'0 0.0
2018-Jan-09 12:01N 39°59' W 075°05'0 0.0
2018-Jan-09 11:31N 39°59' W 075°05'0 0.0
2018-Jan-09 11:00N 39°59' W 075°05'0 0.0
2018-Jan-09 10:30N 39°59' W 075°05'0 0.0
2018-Jan-09 10:00N 39°59' W 075°05'0 0.0
2018-Jan-09 09:30N 39°59' W 075°05'0 0.0
2018-Jan-09 09:00N 39°59' W 075°05'0 0.0
2018-Jan-09 08:30N 39°59' W 075°05'0 0.0
2018-Jan-09 08:00N 39°59' W 075°05'0 0.0
2018-Jan-09 07:30N 39°59' W 075°05'0 0.0
2018-Jan-09 07:00N 39°59' W 075°05'0 0.0
2018-Jan-09 06:30N 39°59' W 075°05'1 2.3
2018-Jan-09 06:00N 39°58' W 075°07'0 0.0
2018-Jan-09 05:30N 39°58' W 075°07'0 0.0
2018-Jan-09 05:00N 39°58' W 075°07'0 0.0
2018-Jan-09 04:30N 39°58' W 075°07'0 0.0
2018-Jan-09 04:00N 39°58' W 075°07'0 0.1
2018-Jan-09 03:30N 39°58' W 075°07'0 0.3
2018-Jan-09 03:00N 39°58' W 075°07'3 5.7
2018-Jan-09 02:30N 39°55' W 075°08'3 5.9
2018-Jan-09 02:00N 39°53' W 075°10'4 8.0
2018-Jan-09 01:30N 39°51' W 075°15'4 8.2
2018-Jan-09 01:01N 39°51' W 075°20'4 8.2
2018-Jan-09 00:30N 39°48' W 075°25'4 8.6
2018-Jan-09 00:00N 39°46' W 075°29'4 8.9
2018-Jan-08 23:31N 39°42' W 075°31'4 8.7
2018-Jan-08 23:00N 39°38' W 075°34'4 8.8
2018-Jan-08 22:30N 39°34' W 075°33'5 9.9
2018-Jan-08 22:01N 39°29' W 075°34'5 9.9
2018-Jan-08 21:30N 39°25' W 075°30'5 9.7
2018-Jan-08 21:00N 39°21' W 075°26'510.3
2018-Jan-08 20:30N 39°17' W 075°22'510.2
2018-Jan-08 20:00N 39°13' W 075°18'510.5
2018-Jan-08 19:30N 39°09' W 075°14'  
Track history (hours):
 
Tides and Currents Weather Stations Pressure Air Temp Water Temp Dewpoint Dewpoint Depression Visibility Wind Speed Wind Dir Waves Ship Positions

Monitor

Owner: Crowley Puerto Rico Services, Inc., Jacksonville, FL. More information available from US FCC via Universal Licensing System and Coast Guard Vessel Documentation Center.

Last reported at 2018-Jan-11 09:29 UTC. Time now 2018-Jan-22 12:38 UTC.
Position N 38°53' W 075°05'.
Warning: this ship's position is 11 days out of date.

Length 40 m; draft 5.8 m.

Type: Towing. MMSI: 366766920.

Date/timePositionNaut miles runAvg speedWind from/ knotsBaromVisibWave heightAir tempDewpointWater temp
2018-Jan-11 09:29N 38°53' W 075°05'4 8.7
2018-Jan-11 08:59N 38°58' W 075°07'4 8.2
2018-Jan-11 08:28N 39°01' W 075°09'4 7.9
2018-Jan-11 07:59N 39°05' W 075°11'4 7.7
2018-Jan-11 07:30N 39°08' W 075°14'4 7.6
2018-Jan-11 07:00N 39°11' W 075°16'4 8.5
2018-Jan-11 06:30N 39°15' W 075°19'5 9.1
2018-Jan-11 06:00N 39°18' W 075°23'510.4
2018-Jan-11 05:30N 39°22' W 075°27'510.7
2018-Jan-11 05:00N 39°26' W 075°32'5 9.9
2018-Jan-11 04:31N 39°31' W 075°33'510.3
2018-Jan-11 04:00N 39°36' W 075°34'4 9.0
2018-Jan-11 03:30N 39°40' W 075°32'510.0
2018-Jan-11 03:00N 39°45' W 075°30'5 9.3
2018-Jan-11 02:30N 39°48' W 075°25'5 9.0
2018-Jan-11 02:00N 39°51' W 075°21'4 8.1
2018-Jan-11 01:30N 39°51' W 075°15'4 7.7
2018-Jan-11 01:01N 39°53' W 075°11'3 6.0
2018-Jan-11 00:30N 39°55' W 075°08'3 6.4
2018-Jan-11 00:00N 39°58' W 075°07'1 1.2
2018-Jan-10 23:30N 39°58' W 075°07'0 0.2
2018-Jan-10 22:59N 39°58' W 075°07'0 0.0
2018-Jan-10 22:29N 39°58' W 075°07'0 0.0
2018-Jan-10 21:59N 39°58' W 075°07'0 0.0
2018-Jan-10 21:29N 39°58' W 075°07'0 0.0
2018-Jan-10 20:59N 39°58' W 075°07'0 0.0
2018-Jan-10 20:29N 39°58' W 075°07'0 0.5
2018-Jan-10 20:00N 39°58' W 075°07'1 1.9
2018-Jan-10 19:29N 39°59' W 075°05'0 0.0
2018-Jan-10 18:59N 39°59' W 075°05'0 0.0
2018-Jan-10 18:29N 39°59' W 075°05'0 0.0
2018-Jan-10 17:59N 39°59' W 075°05'0 0.0
2018-Jan-10 17:29N 39°59' W 075°05'0 0.0
2018-Jan-10 16:59N 39°59' W 075°05'0 0.0
2018-Jan-10 16:29N 39°59' W 075°05'0 0.0
2018-Jan-10 15:59N 39°59' W 075°05'0 0.0
2018-Jan-10 15:29N 39°59' W 075°05'0 0.0
2018-Jan-10 14:59N 39°59' W 075°05'0 0.0
2018-Jan-10 14:29N 39°59' W 075°05'0 0.0
2018-Jan-10 13:59N 39°59' W 075°05'0 0.0
2018-Jan-10 13:29N 39°59' W 075°05'0 0.0
2018-Jan-10 12:59N 39°59' W 075°05'0 0.0
2018-Jan-10 12:29N 39°59' W 075°05'0 0.0
2018-Jan-10 11:59N 39°59' W 075°05'0 0.0
2018-Jan-10 11:29N 39°59' W 075°05'0 0.0
2018-Jan-10 10:59N 39°59' W 075°05'0 0.0
2018-Jan-10 10:29N 39°59' W 075°05'0 0.0
2018-Jan-10 09:59N 39°59' W 075°05'0 0.0
2018-Jan-10 09:29N 39°59' W 075°05'0 0.0
2018-Jan-10 08:59N 39°59' W 075°05'0 0.0
2018-Jan-10 08:29N 39°59' W 075°05'0 0.0
2018-Jan-10 07:59N 39°59' W 075°05'0 0.0
2018-Jan-10 07:26N 39°59' W 075°05'0 0.0
2018-Jan-10 06:59N 39°59' W 075°05'0 0.0
2018-Jan-10 06:29N 39°59' W 075°05'0 0.0
2018-Jan-10 05:59N 39°59' W 075°05'0 0.0
2018-Jan-10 05:29N 39°59' W 075°05'0 0.0
2018-Jan-10 04:59N 39°59' W 075°05'0 0.0
2018-Jan-10 04:29N 39°59' W 075°05'0 0.0
2018-Jan-10 03:59N 39°59' W 075°05'0 0.0
2018-Jan-10 03:29N 39°59' W 075°05'0 0.0
2018-Jan-10 02:59N 39°59' W 075°05'0 0.0
2018-Jan-10 02:29N 39°59' W 075°05'0 0.0
2018-Jan-10 01:59N 39°59' W 075°05'0 0.0
2018-Jan-10 01:29N 39°59' W 075°05'0 0.0
2018-Jan-10 00:59N 39°59' W 075°05'0 0.0
2018-Jan-10 00:29N 39°59' W 075°05'0 0.0
2018-Jan-09 23:59N 39°59' W 075°05'0 0.0
2018-Jan-09 23:29N 39°59' W 075°05'0 0.0
2018-Jan-09 22:59N 39°59' W 075°05'0 0.0
2018-Jan-09 22:29N 39°59' W 075°05'0 0.0
2018-Jan-09 21:59N 39°59' W 075°05'0 0.0
2018-Jan-09 21:29N 39°59' W 075°05'0 0.0
2018-Jan-09 20:59N 39°59' W 075°05'0 0.0
2018-Jan-09 20:29N 39°59' W 075°05'0 0.0
2018-Jan-09 19:59N 39°59' W 075°05'0 0.0
2018-Jan-09 19:29N 39°59' W 075°05'0 0.0
2018-Jan-09 18:59N 39°59' W 075°05'0 0.0
2018-Jan-09 18:29N 39°59' W 075°05'0 0.0
2018-Jan-09 17:59N 39°59' W 075°05'0 0.0
2018-Jan-09 17:29N 39°59' W 075°05'0 0.0
2018-Jan-09 16:59N 39°59' W 075°05'0 0.0
2018-Jan-09 16:29N 39°59' W 075°05'0 0.0
2018-Jan-09 15:59N 39°59' W 075°05'0 0.0
2018-Jan-09 15:29N 39°59' W 075°05'0 0.0
2018-Jan-09 14:59N 39°59' W 075°05'0 0.0
2018-Jan-09 14:29N 39°59' W 075°05'0 0.0
2018-Jan-09 13:59N 39°59' W 075°05'0 0.0
2018-Jan-09 13:26N 39°59' W 075°05'0 0.0
2018-Jan-09 12:59N 39°59' W 075°05'0 0.0
2018-Jan-09 12:30N 39°59' W 075°05'0 0.0
2018-Jan-09 12:01N 39°59' W 075°05'0 0.0
2018-Jan-09 11:31N 39°59' W 075°05'0 0.0
2018-Jan-09 11:00N 39°59' W 075°05'0 0.0
2018-Jan-09 10:30N 39°59' W 075°05'0 0.0
2018-Jan-09 10:00N 39°59' W 075°05'0 0.0
2018-Jan-09 09:30N 39°59' W 075°05'0 0.0
2018-Jan-09 09:00N 39°59' W 075°05'0 0.0
2018-Jan-09 08:30N 39°59' W 075°05'0 0.0
2018-Jan-09 08:00N 39°59' W 075°05'0 0.0
2018-Jan-09 07:30N 39°59' W 075°05'0 0.0
2018-Jan-09 07:00N 39°59' W 075°05'0 0.0
2018-Jan-09 06:30N 39°59' W 075°05'1 2.3
2018-Jan-09 06:00N 39°58' W 075°07'0 0.0
2018-Jan-09 05:30N 39°58' W 075°07'0 0.0
2018-Jan-09 05:00N 39°58' W 075°07'0 0.0
2018-Jan-09 04:30N 39°58' W 075°07'0 0.0
2018-Jan-09 04:00N 39°58' W 075°07'0 0.1
2018-Jan-09 03:30N 39°58' W 075°07'0 0.3
2018-Jan-09 03:00N 39°58' W 075°07'3 5.7
2018-Jan-09 02:30N 39°55' W 075°08'3 5.9
2018-Jan-09 02:00N 39°53' W 075°10'4 8.0
2018-Jan-09 01:30N 39°51' W 075°15'4 8.2
2018-Jan-09 01:01N 39°51' W 075°20'4 8.2
2018-Jan-09 00:30N 39°48' W 075°25'4 8.6
2018-Jan-09 00:00N 39°46' W 075°29'4 8.9
2018-Jan-08 23:31N 39°42' W 075°31'4 8.7
2018-Jan-08 23:00N 39°38' W 075°34'4 8.8
2018-Jan-08 22:30N 39°34' W 075°33'5 9.9
2018-Jan-08 22:01N 39°29' W 075°34'5 9.9
2018-Jan-08 21:30N 39°25' W 075°30'5 9.7
2018-Jan-08 21:00N 39°21' W 075°26'510.3
2018-Jan-08 20:30N 39°17' W 075°22'510.2
2018-Jan-08 20:00N 39°13' W 075°18'510.5
2018-Jan-08 19:30N 39°09' W 075°14'  

Dump ship's entire track history